EWG9W LKPR-EDDK
Flight info
| Callsign | EWG9W |
|---|---|
| Flight time | 1h 11m |
| Altitude | 32000 |
| Route | BALTU DCT DONAD DCT RAPET T843 VELIS DCT MASEK T841 ERNEP ERNEP1B |
| Aircraft | A319/M-SDE3FGHIRWY/LB1 |
Departure
| Time | 2026-05-06 16:50 |
|---|---|
| Airport | Václav Havel Airport Prague (LKPR) |
Arrival
| Time | 2026-05-06 18:01 |
|---|---|
| Airport | Cologne Bonn Airport (EDDK) |
| Time | Latitude | Longitude | Altitude | Speed | Heading |
|---|---|---|---|---|---|
| 2026-05-06 16:24 | 50.10395 | 14.26697 | 1174 ft | 0 kts | 34° |
| 2026-05-06 16:39 | 50.10381 | 14.26683 | 1170 ft | 4 kts | 25° |
| 2026-05-06 16:40 | 50.10357 | 14.26672 | 1171 ft | 4 kts | 348° |
| 2026-05-06 16:40 | 50.10341 | 14.26684 | 1171 ft | 0 kts | 305° |
| 2026-05-06 16:43 | 50.10351 | 14.26659 | 1170 ft | 4 kts | 296° |
| 2026-05-06 16:44 | 50.10337 | 14.26608 | 1173 ft | 8 kts | 224° |
| 2026-05-06 16:44 | 50.10284 | 14.26554 | 1173 ft | 10 kts | 214° |
| 2026-05-06 16:44 | 50.10229 | 14.26537 | 1178 ft | 8 kts | 139° |
| 2026-05-06 16:44 | 50.10193 | 14.26612 | 1178 ft | 9 kts | 127° |
| 2026-05-06 16:45 | 50.10145 | 14.26711 | 1178 ft | 14 kts | 127° |
| 2026-05-06 16:45 | 50.10090 | 14.26824 | 1186 ft | 12 kts | 127° |
| 2026-05-06 16:45 | 50.10048 | 14.26913 | 1192 ft | 8 kts | 127° |
| 2026-05-06 16:45 | 50.10008 | 14.26993 | 1196 ft | 14 kts | 127° |
| 2026-05-06 16:46 | 50.09936 | 14.27131 | 1200 ft | 10 kts | 155° |
| 2026-05-06 16:46 | 50.09922 | 14.27105 | 1202 ft | 2 kts | 280° |
| 2026-05-06 16:46 | 50.09908 | 14.26988 | 1205 ft | 20 kts | 258° |
| 2026-05-06 16:46 | 50.09887 | 14.26763 | 1206 ft | 17 kts | 261° |
| 2026-05-06 16:47 | 50.09881 | 14.26694 | 1207 ft | 1 kts | 262° |
| 2026-05-06 16:47 | 50.09880 | 14.26692 | 1207 ft | 0 kts | 262° |
| 2026-05-06 16:48 | 50.09880 | 14.26690 | 1207 ft | 2 kts | 262° |
| 2026-05-06 16:48 | 50.09872 | 14.26598 | 1207 ft | 12 kts | 262° |
| 2026-05-06 16:49 | 50.09880 | 14.26445 | 1202 ft | 18 kts | 297° |
| 2026-05-06 16:49 | 50.09982 | 14.26230 | 1196 ft | 47 kts | 306° |
| 2026-05-06 16:49 | 50.10347 | 14.25474 | 1178 ft | 125 kts | 307° |
| 2026-05-06 16:49 | 50.10961 | 14.24228 | 1573 ft | 147 kts | 307° |
| 2026-05-06 16:50 | 50.11575 | 14.22962 | 2375 ft | 146 kts | 306° |
| 2026-05-06 16:50 | 50.12206 | 14.21681 | 2893 ft | 156 kts | 307° |
| 2026-05-06 16:50 | 50.12908 | 14.20231 | 3169 ft | 179 kts | 306° |
| 2026-05-06 16:50 | 50.13417 | 14.19166 | 3382 ft | 190 kts | 305° |
| 2026-05-06 16:51 | 50.14540 | 14.16814 | 3859 ft | 219 kts | 305° |
| 2026-05-06 16:51 | 50.15504 | 14.14793 | 4323 ft | 245 kts | 304° |
| 2026-05-06 16:51 | 50.16568 | 14.12559 | 4948 ft | 266 kts | 304° |
| 2026-05-06 16:51 | 50.17692 | 14.10204 | 5902 ft | 274 kts | 304° |
| 2026-05-06 16:52 | 50.18643 | 14.07619 | 6842 ft | 277 kts | 285° |
| 2026-05-06 16:52 | 50.18903 | 14.04665 | 7812 ft | 276 kts | 268° |
| 2026-05-06 16:52 | 50.18927 | 14.01698 | 8815 ft | 278 kts | 267° |
| 2026-05-06 16:52 | 50.18947 | 13.98621 | 9811 ft | 282 kts | 267° |
| 2026-05-06 16:53 | 50.18965 | 13.95513 | 10309 ft | 302 kts | 267° |
| 2026-05-06 16:53 | 50.18983 | 13.92109 | 10633 ft | 325 kts | 268° |
| 2026-05-06 16:53 | 50.19006 | 13.88524 | 11254 ft | 334 kts | 268° |
| 2026-05-06 16:53 | 50.19032 | 13.84867 | 11884 ft | 339 kts | 268° |
| 2026-05-06 16:54 | 50.19058 | 13.81169 | 12684 ft | 343 kts | 268° |
| 2026-05-06 16:54 | 50.19084 | 13.77433 | 13503 ft | 346 kts | 268° |
| 2026-05-06 16:54 | 50.19107 | 13.73671 | 14221 ft | 349 kts | 268° |
| 2026-05-06 16:54 | 50.19129 | 13.69870 | 14919 ft | 352 kts | 268° |
| 2026-05-06 16:55 | 50.19148 | 13.66037 | 15618 ft | 355 kts | 268° |
| 2026-05-06 16:55 | 50.19165 | 13.62169 | 16310 ft | 358 kts | 268° |
| 2026-05-06 16:55 | 50.19183 | 13.58263 | 16999 ft | 362 kts | 268° |
| 2026-05-06 16:55 | 50.19200 | 13.54321 | 17685 ft | 365 kts | 268° |
| 2026-05-06 16:56 | 50.19216 | 13.50335 | 18325 ft | 369 kts | 268° |
| 2026-05-06 16:56 | 50.19231 | 13.46312 | 18923 ft | 373 kts | 268° |
| 2026-05-06 16:56 | 50.19247 | 13.42249 | 19522 ft | 376 kts | 268° |
| 2026-05-06 16:56 | 50.19259 | 13.38151 | 20123 ft | 380 kts | 268° |
| 2026-05-06 16:57 | 50.19268 | 13.34016 | 20709 ft | 383 kts | 268° |
| 2026-05-06 16:57 | 50.19273 | 13.29835 | 21287 ft | 387 kts | 268° |
| 2026-05-06 16:57 | 50.19277 | 13.25620 | 21829 ft | 390 kts | 268° |
| 2026-05-06 16:57 | 50.19282 | 13.21366 | 22367 ft | 394 kts | 268° |
| 2026-05-06 16:58 | 50.19289 | 13.17074 | 22896 ft | 397 kts | 268° |
| 2026-05-06 16:58 | 50.19293 | 13.12745 | 23398 ft | 401 kts | 268° |
| 2026-05-06 16:58 | 50.19295 | 13.08379 | 23865 ft | 404 kts | 268° |
| 2026-05-06 16:58 | 50.19294 | 13.03986 | 24336 ft | 406 kts | 268° |
| 2026-05-06 16:59 | 50.19290 | 12.99573 | 24797 ft | 408 kts | 268° |
| 2026-05-06 16:59 | 50.19283 | 12.95140 | 25253 ft | 410 kts | 268° |
| 2026-05-06 16:59 | 50.19275 | 12.90685 | 25743 ft | 411 kts | 268° |
| 2026-05-06 16:59 | 50.19265 | 12.86219 | 26220 ft | 413 kts | 268° |
| 2026-05-06 17:00 | 50.19256 | 12.81732 | 26674 ft | 415 kts | 268° |
| 2026-05-06 17:00 | 50.19246 | 12.77219 | 27145 ft | 416 kts | 268° |
| 2026-05-06 17:00 | 50.19233 | 12.72751 | 27570 ft | 418 kts | 268° |
| 2026-05-06 17:00 | 50.19218 | 12.68203 | 27750 ft | 419 kts | 268° |
| 2026-05-06 17:01 | 50.19200 | 12.63595 | 27780 ft | 419 kts | 268° |
| 2026-05-06 17:01 | 50.19181 | 12.59118 | 27769 ft | 418 kts | 268° |
| 2026-05-06 17:01 | 50.19164 | 12.54575 | 27905 ft | 420 kts | 268° |
| 2026-05-06 17:01 | 50.19146 | 12.50001 | 28278 ft | 422 kts | 268° |
| 2026-05-06 17:02 | 50.19122 | 12.45413 | 28704 ft | 424 kts | 267° |
| 2026-05-06 17:02 | 50.19092 | 12.40748 | 29134 ft | 425 kts | 267° |
| 2026-05-06 17:02 | 50.19086 | 12.36133 | 29536 ft | 427 kts | 270° |
| 2026-05-06 17:02 | 50.19431 | 12.31503 | 29912 ft | 433 kts | 278° |
| 2026-05-06 17:03 | 50.20141 | 12.26918 | 30233 ft | 435 kts | 281° |
| 2026-05-06 17:03 | 50.20874 | 12.22323 | 30563 ft | 437 kts | 281° |
| 2026-05-06 17:03 | 50.21608 | 12.17719 | 30970 ft | 437 kts | 281° |
| 2026-05-06 17:03 | 50.22090 | 12.14678 | 31284 ft | 435 kts | 281° |
| 2026-05-06 17:04 | 50.22810 | 12.10096 | 31679 ft | 434 kts | 280° |
| 2026-05-06 17:04 | 50.24217 | 12.01061 | 31793 ft | 421 kts | 280° |
| 2026-05-06 17:05 | 50.25586 | 11.92215 | 31788 ft | 418 kts | 279° |
| 2026-05-06 17:05 | 50.26954 | 11.83393 | 31785 ft | 418 kts | 280° |
| 2026-05-06 17:06 | 50.28320 | 11.74575 | 31796 ft | 417 kts | 280° |
| 2026-05-06 17:06 | 50.29670 | 11.65773 | 31778 ft | 416 kts | 279° |
| 2026-05-06 17:07 | 50.31009 | 11.56983 | 31803 ft | 416 kts | 279° |
| 2026-05-06 17:07 | 50.32331 | 11.48183 | 31790 ft | 415 kts | 279° |
| 2026-05-06 17:08 | 50.33634 | 11.39374 | 31783 ft | 415 kts | 279° |
| 2026-05-06 17:08 | 50.34925 | 11.30565 | 31777 ft | 415 kts | 279° |
| 2026-05-06 17:09 | 50.36218 | 11.21754 | 31779 ft | 415 kts | 279° |
| 2026-05-06 17:09 | 50.37511 | 11.12934 | 31792 ft | 415 kts | 279° |
| 2026-05-06 17:10 | 50.38791 | 11.04124 | 31794 ft | 414 kts | 278° |
| 2026-05-06 17:10 | 50.40059 | 10.95322 | 31789 ft | 414 kts | 278° |
| 2026-05-06 17:11 | 50.41324 | 10.86508 | 31795 ft | 414 kts | 278° |
| 2026-05-06 17:11 | 50.42576 | 10.77710 | 31787 ft | 413 kts | 278° |
| 2026-05-06 17:12 | 50.43829 | 10.68912 | 31802 ft | 413 kts | 278° |
| 2026-05-06 17:12 | 50.45094 | 10.60108 | 31785 ft | 414 kts | 278° |
| 2026-05-06 17:13 | 50.46365 | 10.51295 | 31782 ft | 414 kts | 278° |
| 2026-05-06 17:13 | 50.48333 | 10.42733 | 31777 ft | 422 kts | 290° |
| 2026-05-06 17:14 | 50.50850 | 10.34415 | 31782 ft | 422 kts | 290° |
| 2026-05-06 17:14 | 50.53360 | 10.26080 | 31796 ft | 422 kts | 290° |
| 2026-05-06 17:15 | 50.55855 | 10.17735 | 31787 ft | 422 kts | 290° |
| 2026-05-06 17:15 | 50.58350 | 10.09363 | 31782 ft | 423 kts | 290° |
| 2026-05-06 17:16 | 50.60824 | 10.01029 | 31777 ft | 423 kts | 290° |
| 2026-05-06 17:16 | 50.63303 | 9.92627 | 31776 ft | 423 kts | 290° |
| 2026-05-06 17:17 | 50.65780 | 9.84207 | 31779 ft | 423 kts | 290° |
| 2026-05-06 17:17 | 50.68261 | 9.75788 | 31782 ft | 424 kts | 290° |
| 2026-05-06 17:18 | 50.70726 | 9.67396 | 31800 ft | 412 kts | 290° |
| 2026-05-06 17:18 | 50.71912 | 9.63366 | 31795 ft | 397 kts | 290° |
| 2026-05-06 17:18 | 50.73062 | 9.59487 | 31795 ft | 384 kts | 292° |
| 2026-05-06 17:18 | 50.74591 | 9.56071 | 31799 ft | 381 kts | 309° |
| 2026-05-06 17:19 | 50.76692 | 9.53563 | 31806 ft | 380 kts | 327° |
| 2026-05-06 17:19 | 50.79171 | 9.52196 | 31801 ft | 378 kts | 346° |
| 2026-05-06 17:19 | 50.81790 | 9.52074 | 31801 ft | 379 kts | 5° |
| 2026-05-06 17:19 | 50.84331 | 9.53191 | 31801 ft | 382 kts | 24° |
| 2026-05-06 17:20 | 50.86565 | 9.55472 | 31806 ft | 384 kts | 43° |
| 2026-05-06 17:20 | 50.88243 | 9.58723 | 31802 ft | 381 kts | 63° |
| 2026-05-06 17:20 | 50.89203 | 9.62590 | 31802 ft | 376 kts | 82° |
| 2026-05-06 17:20 | 50.89402 | 9.66662 | 31793 ft | 368 kts | 101° |
| 2026-05-06 17:21 | 50.88867 | 9.70554 | 31804 ft | 359 kts | 115° |
| 2026-05-06 17:21 | 50.86932 | 9.77805 | 31795 ft | 356 kts | 122° |
| 2026-05-06 17:22 | 50.84749 | 9.84770 | 31791 ft | 355 kts | 122° |
| 2026-05-06 17:22 | 50.82083 | 9.91149 | 31758 ft | 340 kts | 145° |
| 2026-05-06 17:22 | 50.80180 | 9.93247 | 31759 ft | 330 kts | 160° |
| 2026-05-06 17:23 | 50.78058 | 9.94471 | 31769 ft | 321 kts | 174° |
| 2026-05-06 17:23 | 50.75864 | 9.94795 | 31766 ft | 314 kts | 187° |
| 2026-05-06 17:23 | 50.73731 | 9.94265 | 31764 ft | 309 kts | 200° |
| 2026-05-06 17:23 | 50.71773 | 9.92945 | 31763 ft | 306 kts | 213° |
| 2026-05-06 17:24 | 50.70090 | 9.90927 | 31764 ft | 304 kts | 225° |
| 2026-05-06 17:24 | 50.68769 | 9.88320 | 31763 ft | 305 kts | 238° |
| 2026-05-06 17:24 | 50.67883 | 9.85274 | 31761 ft | 308 kts | 250° |
| 2026-05-06 17:24 | 50.67493 | 9.81933 | 31774 ft | 314 kts | 263° |
| 2026-05-06 17:25 | 50.67644 | 9.78471 | 31770 ft | 321 kts | 277° |
| 2026-05-06 17:25 | 50.68360 | 9.75106 | 31766 ft | 329 kts | 290° |
| 2026-05-06 17:25 | 50.69340 | 9.71838 | 31769 ft | 330 kts | 289° |
| 2026-05-06 17:26 | 50.71302 | 9.65267 | 31774 ft | 332 kts | 289° |
| 2026-05-06 17:26 | 50.73319 | 9.58702 | 31766 ft | 337 kts | 298° |
| 2026-05-06 17:26 | 50.74939 | 9.55967 | 31767 ft | 349 kts | 320° |
| 2026-05-06 17:27 | 50.77165 | 9.54351 | 31763 ft | 361 kts | 343° |
| 2026-05-06 17:27 | 50.79695 | 9.54220 | 31771 ft | 370 kts | 9° |
| 2026-05-06 17:27 | 50.82101 | 9.55725 | 31802 ft | 378 kts | 35° |
| 2026-05-06 17:27 | 50.83940 | 9.58671 | 31802 ft | 378 kts | 61° |
| 2026-05-06 17:28 | 50.84863 | 9.62491 | 31800 ft | 370 kts | 87° |
| 2026-05-06 17:28 | 50.84764 | 9.66445 | 31797 ft | 359 kts | 111° |
| 2026-05-06 17:28 | 50.83883 | 9.70123 | 31799 ft | 355 kts | 120° |
| 2026-05-06 17:29 | 50.81801 | 9.77187 | 31799 ft | 354 kts | 122° |
| 2026-05-06 17:29 | 50.79435 | 9.83932 | 31778 ft | 343 kts | 140° |
| 2026-05-06 17:29 | 50.77585 | 9.86153 | 31771 ft | 329 kts | 160° |
| 2026-05-06 17:30 | 50.75444 | 9.87173 | 31761 ft | 317 kts | 180° |
| 2026-05-06 17:30 | 50.73284 | 9.86990 | 31762 ft | 309 kts | 198° |
| 2026-05-06 17:30 | 50.71323 | 9.85720 | 31755 ft | 304 kts | 215° |
| 2026-05-06 17:30 | 50.69753 | 9.83500 | 31789 ft | 307 kts | 232° |
| 2026-05-06 17:31 | 50.68717 | 9.80537 | 31793 ft | 313 kts | 249° |
| 2026-05-06 17:31 | 50.68369 | 9.77125 | 31789 ft | 321 kts | 268° |
| 2026-05-06 17:31 | 50.68794 | 9.73678 | 31797 ft | 331 kts | 287° |
| 2026-05-06 17:32 | 50.70774 | 9.66984 | 31791 ft | 336 kts | 290° |
| 2026-05-06 17:32 | 50.72769 | 9.60322 | 31794 ft | 336 kts | 290° |
| 2026-05-06 17:32 | 50.74032 | 9.57231 | 31795 ft | 345 kts | 308° |
| 2026-05-06 17:33 | 50.75979 | 9.54954 | 31788 ft | 356 kts | 331° |
| 2026-05-06 17:33 | 50.78400 | 9.53977 | 31785 ft | 366 kts | 355° |
| 2026-05-06 17:33 | 50.80923 | 9.54565 | 31775 ft | 372 kts | 20° |
| 2026-05-06 17:33 | 50.83139 | 9.56689 | 31801 ft | 377 kts | 45° |
| 2026-05-06 17:34 | 50.84650 | 9.60029 | 31811 ft | 374 kts | 71° |
| 2026-05-06 17:34 | 50.85205 | 9.63972 | 31796 ft | 365 kts | 95° |
| 2026-05-06 17:34 | 50.84775 | 9.67844 | 31790 ft | 353 kts | 119° |
| 2026-05-06 17:34 | 50.83598 | 9.71169 | 31794 ft | 344 kts | 135° |
| 2026-05-06 17:35 | 50.82531 | 9.72980 | 31803 ft | 337 kts | 146° |
| 2026-05-06 17:35 | 50.80345 | 9.75017 | 31795 ft | 325 kts | 167° |
| 2026-05-06 17:35 | 50.78155 | 9.75558 | 31797 ft | 316 kts | 187° |
| 2026-05-06 17:36 | 50.74195 | 9.73130 | 31794 ft | 308 kts | 222° |
| 2026-05-06 17:36 | 50.72791 | 9.70447 | 31786 ft | 310 kts | 240° |
| 2026-05-06 17:36 | 50.72057 | 9.67339 | 31778 ft | 314 kts | 257° |
| 2026-05-06 17:36 | 50.72010 | 9.63783 | 31773 ft | 322 kts | 275° |
| 2026-05-06 17:37 | 50.72740 | 9.60400 | 31775 ft | 331 kts | 291° |
| 2026-05-06 17:37 | 50.73777 | 9.57124 | 31793 ft | 339 kts | 291° |
| 2026-05-06 17:37 | 50.74859 | 9.53727 | 31801 ft | 353 kts | 291° |
| 2026-05-06 17:37 | 50.75988 | 9.50193 | 31800 ft | 368 kts | 292° |
| 2026-05-06 17:38 | 50.77166 | 9.46509 | 31806 ft | 383 kts | 292° |
| 2026-05-06 17:38 | 50.78392 | 9.42669 | 31669 ft | 401 kts | 292° |
| 2026-05-06 17:38 | 50.79681 | 9.38616 | 31568 ft | 421 kts | 292° |
| 2026-05-06 17:38 | 50.81007 | 9.34430 | 31314 ft | 430 kts | 292° |
| 2026-05-06 17:39 | 50.82355 | 9.30179 | 31063 ft | 433 kts | 292° |
| 2026-05-06 17:39 | 50.83691 | 9.25982 | 30537 ft | 431 kts | 292° |
| 2026-05-06 17:39 | 50.85033 | 9.21750 | 29929 ft | 430 kts | 292° |
| 2026-05-06 17:39 | 50.86365 | 9.17531 | 29250 ft | 427 kts | 292° |
| 2026-05-06 17:40 | 50.87686 | 9.13339 | 28606 ft | 423 kts | 292° |
| 2026-05-06 17:40 | 50.88992 | 9.09191 | 27977 ft | 419 kts | 292° |
| 2026-05-06 17:40 | 50.90285 | 9.05077 | 27348 ft | 415 kts | 292° |
| 2026-05-06 17:40 | 50.91571 | 9.00999 | 26728 ft | 412 kts | 293° |
| 2026-05-06 17:41 | 50.92837 | 8.96950 | 26107 ft | 408 kts | 292° |
| 2026-05-06 17:41 | 50.94087 | 8.92930 | 25499 ft | 405 kts | 293° |
| 2026-05-06 17:41 | 50.95335 | 8.88951 | 24873 ft | 402 kts | 293° |
| 2026-05-06 17:41 | 50.96592 | 8.85002 | 24236 ft | 400 kts | 294° |
| 2026-05-06 17:42 | 50.97850 | 8.81083 | 23613 ft | 398 kts | 294° |
| 2026-05-06 17:42 | 50.99108 | 8.77185 | 23004 ft | 397 kts | 294° |
| 2026-05-06 17:42 | 51.00262 | 8.73199 | 22743 ft | 397 kts | 287° |
| 2026-05-06 17:42 | 51.00972 | 8.68974 | 21712 ft | 399 kts | 276° |
| 2026-05-06 17:43 | 51.01097 | 8.64626 | 21166 ft | 389 kts | 265° |
| 2026-05-06 17:43 | 51.00758 | 8.60424 | 20633 ft | 381 kts | 258° |
| 2026-05-06 17:43 | 51.00295 | 8.56312 | 20105 ft | 376 kts | 258° |
| 2026-05-06 17:43 | 50.99849 | 8.52256 | 19579 ft | 371 kts | 259° |
| 2026-05-06 17:44 | 50.99411 | 8.48245 | 19063 ft | 367 kts | 258° |
| 2026-05-06 17:44 | 50.98976 | 8.44281 | 18544 ft | 362 kts | 258° |
| 2026-05-06 17:44 | 50.98539 | 8.40375 | 17981 ft | 358 kts | 258° |
| 2026-05-06 17:44 | 50.98104 | 8.36516 | 17415 ft | 352 kts | 258° |
| 2026-05-06 17:45 | 50.97675 | 8.32713 | 16862 ft | 347 kts | 258° |
| 2026-05-06 17:45 | 50.97193 | 8.28998 | 16318 ft | 341 kts | 253° |
| 2026-05-06 17:45 | 50.96342 | 8.25521 | 15763 ft | 337 kts | 243° |
| 2026-05-06 17:45 | 50.95262 | 8.22250 | 15210 ft | 333 kts | 242° |
| 2026-05-06 17:46 | 50.94194 | 8.19010 | 14659 ft | 330 kts | 242° |
| 2026-05-06 17:46 | 50.93134 | 8.15791 | 14103 ft | 328 kts | 242° |
| 2026-05-06 17:46 | 50.92079 | 8.12600 | 13543 ft | 326 kts | 242° |
| 2026-05-06 17:46 | 50.91029 | 8.09427 | 12953 ft | 324 kts | 242° |
| 2026-05-06 17:47 | 50.89987 | 8.06287 | 12406 ft | 320 kts | 242° |
| 2026-05-06 17:47 | 50.88942 | 8.03139 | 11851 ft | 317 kts | 242° |
| 2026-05-06 17:47 | 50.87919 | 8.00060 | 11318 ft | 315 kts | 242° |
| 2026-05-06 17:47 | 50.86903 | 7.97001 | 10765 ft | 313 kts | 242° |
| 2026-05-06 17:48 | 50.85892 | 7.93966 | 10415 ft | 306 kts | 242° |
| 2026-05-06 17:48 | 50.84921 | 7.91051 | 10298 ft | 293 kts | 242° |
| 2026-05-06 17:48 | 50.83990 | 7.88255 | 10119 ft | 283 kts | 242° |
| 2026-05-06 17:48 | 50.83079 | 7.85528 | 9856 ft | 278 kts | 242° |
| 2026-05-06 17:49 | 50.82175 | 7.82828 | 9690 ft | 276 kts | 242° |
| 2026-05-06 17:49 | 50.81276 | 7.80144 | 9560 ft | 276 kts | 242° |
| 2026-05-06 17:49 | 50.80374 | 7.77467 | 9425 ft | 276 kts | 242° |
| 2026-05-06 17:49 | 50.79473 | 7.74776 | 9019 ft | 279 kts | 242° |
| 2026-05-06 17:50 | 50.78564 | 7.72065 | 8587 ft | 278 kts | 242° |
| 2026-05-06 17:50 | 50.77662 | 7.69378 | 8173 ft | 278 kts | 242° |
| 2026-05-06 17:50 | 50.76763 | 7.66702 | 7809 ft | 274 kts | 242° |
| 2026-05-06 17:50 | 50.75873 | 7.64053 | 7203 ft | 272 kts | 242° |
| 2026-05-06 17:51 | 50.74987 | 7.61416 | 6551 ft | 272 kts | 243° |
| 2026-05-06 17:51 | 50.74099 | 7.58778 | 5897 ft | 272 kts | 243° |
| 2026-05-06 17:51 | 50.73203 | 7.56125 | 5150 ft | 275 kts | 244° |
| 2026-05-06 17:51 | 50.72310 | 7.53493 | 4787 ft | 263 kts | 244° |
| 2026-05-06 17:52 | 50.71481 | 7.51055 | 4732 ft | 241 kts | 244° |
| 2026-05-06 17:52 | 50.70504 | 7.49057 | 4535 ft | 226 kts | 218° |
| 2026-05-06 17:52 | 50.69213 | 7.47764 | 4331 ft | 212 kts | 219° |
| 2026-05-06 17:52 | 50.68336 | 7.46043 | 4135 ft | 196 kts | 247° |
| 2026-05-06 17:53 | 50.68040 | 7.44083 | 4085 ft | 174 kts | 271° |
| 2026-05-06 17:53 | 50.68213 | 7.42312 | 4038 ft | 154 kts | 292° |
| 2026-05-06 17:53 | 50.68680 | 7.40926 | 4011 ft | 135 kts | 309° |
| 2026-05-06 17:53 | 50.69312 | 7.39898 | 3982 ft | 128 kts | 320° |
| 2026-05-06 17:54 | 50.69969 | 7.38956 | 3952 ft | 128 kts | 319° |
| 2026-05-06 17:54 | 50.70623 | 7.38017 | 3928 ft | 127 kts | 320° |
| 2026-05-06 17:54 | 50.71274 | 7.37082 | 3909 ft | 126 kts | 320° |
| 2026-05-06 17:54 | 50.71923 | 7.36152 | 3864 ft | 126 kts | 320° |
| 2026-05-06 17:55 | 50.72571 | 7.35222 | 3765 ft | 125 kts | 320° |
| 2026-05-06 17:55 | 50.73213 | 7.34300 | 3634 ft | 124 kts | 320° |
| 2026-05-06 17:55 | 50.73851 | 7.33384 | 3477 ft | 124 kts | 319° |
| 2026-05-06 17:55 | 50.74487 | 7.32472 | 3317 ft | 123 kts | 320° |
| 2026-05-06 17:56 | 50.75122 | 7.31559 | 3159 ft | 123 kts | 320° |
| 2026-05-06 17:56 | 50.75753 | 7.30651 | 2993 ft | 122 kts | 320° |
| 2026-05-06 17:56 | 50.76381 | 7.29749 | 2831 ft | 122 kts | 320° |
| 2026-05-06 17:56 | 50.77004 | 7.28852 | 2660 ft | 121 kts | 320° |
| 2026-05-06 17:57 | 50.77625 | 7.27958 | 2494 ft | 121 kts | 320° |
| 2026-05-06 17:57 | 50.78245 | 7.27066 | 2328 ft | 120 kts | 320° |
| 2026-05-06 17:57 | 50.78862 | 7.26177 | 2162 ft | 120 kts | 320° |
| 2026-05-06 17:57 | 50.79478 | 7.25290 | 1997 ft | 120 kts | 320° |
| 2026-05-06 17:58 | 50.80093 | 7.24404 | 1835 ft | 119 kts | 320° |
| 2026-05-06 17:58 | 50.80706 | 7.23519 | 1676 ft | 119 kts | 320° |
| 2026-05-06 17:58 | 50.81318 | 7.22633 | 1506 ft | 119 kts | 319° |
| 2026-05-06 17:58 | 50.81928 | 7.21753 | 1333 ft | 119 kts | 320° |
| 2026-05-06 17:59 | 50.82541 | 7.20869 | 1156 ft | 120 kts | 319° |
| 2026-05-06 17:59 | 50.83153 | 7.19987 | 1023 ft | 119 kts | 319° |
| 2026-05-06 17:59 | 50.83765 | 7.19104 | 818 ft | 119 kts | 318° |
| 2026-05-06 17:59 | 50.84382 | 7.18220 | 670 ft | 120 kts | 319° |
| 2026-05-06 18:00 | 50.84989 | 7.17329 | 507 ft | 119 kts | 318° |
| 2026-05-06 18:00 | 50.85592 | 7.16458 | 356 ft | 117 kts | 319° |
| 2026-05-06 18:00 | 50.86153 | 7.15655 | 309 ft | 97 kts | 319° |
| 2026-05-06 18:00 | 50.86587 | 7.15025 | 276 ft | 81 kts | 317° |
| 2026-05-06 18:01 | 50.86970 | 7.14473 | 257 ft | 60 kts | 317° |
| 2026-05-06 18:01 | 50.87220 | 7.14103 | 246 ft | 33 kts | 309° |
| 2026-05-06 18:01 | 50.87296 | 7.13878 | 242 ft | 23 kts | 290° |
| 2026-05-06 18:01 | 50.87323 | 7.13667 | 237 ft | 8 kts | 279° |
| 2026-05-06 18:02 | 50.87327 | 7.13634 | 236 ft | 5 kts | 280° |
| 2026-05-06 18:02 | 50.87338 | 7.13542 | 234 ft | 12 kts | 283° |
| 2026-05-06 18:02 | 50.87388 | 7.13404 | 233 ft | 17 kts | 314° |
| 2026-05-06 18:02 | 50.87486 | 7.13263 | 233 ft | 21 kts | 318° |
| 2026-05-06 18:03 | 50.87606 | 7.13087 | 233 ft | 26 kts | 319° |
| 2026-05-06 18:03 | 50.87740 | 7.12898 | 233 ft | 19 kts | 316° |
| 2026-05-06 18:03 | 50.87789 | 7.12763 | 232 ft | 13 kts | 260° |
| 2026-05-06 18:03 | 50.87781 | 7.12706 | 232 ft | 2 kts | 259° |
| 2026-05-06 18:04 | 50.87776 | 7.12664 | 232 ft | 5 kts | 263° |
| 2026-05-06 18:04 | 50.87800 | 7.12600 | 233 ft | 9 kts | 303° |
| 2026-05-06 18:04 | 50.87818 | 7.12532 | 234 ft | 0 kts | 288° |
| 2026-05-06 18:05 | 50.87820 | 7.12531 | 234 ft | 1 kts | 311° |
| 2026-05-06 18:05 | 50.87826 | 7.12556 | 234 ft | 8 kts | 79° |
| 2026-05-06 18:05 | 50.87850 | 7.12571 | 232 ft | 3 kts | 281° |
| 2026-05-06 18:05 | 50.87861 | 7.12519 | 234 ft | 7 kts | 288° |
| 2026-05-06 18:06 | 50.87870 | 7.12478 | 232 ft | 2 kts | 288° |
| 2026-05-06 18:06 | 50.87873 | 7.12462 | 232 ft | 0 kts | 288° |
| 2026-05-06 18:06 | 50.87874 | 7.12460 | 232 ft | 0 kts | 288° |